Time;durP1;ratioP1;P1;durP2;ratioP2;P2;SDS_P1;SDS_P2;PMS_P1;PMS_P2;Temp;Humidity;BMP_temperature;BMP_pressure;BME280_temperature;BME280_humidity;BME280_pressure;Samples;Min_cycle;Max_cycle;Signal;HPM_P1;HPM_P2
2022/07/05 00:02:15;;;;;;;7.00;6.60;;;18.80;82.20;;;;;;5071051;28;20196;-53
2022/07/05 00:04:41;;;;;;;7.00;6.60;;;18.80;84.00;;;;;;5070757;28;20193;-55
2022/07/05 00:07:19;;;;;;;7.37;6.97;;;18.80;85.90;;;;;;5070955;28;20423;-54
2022/07/05 00:09:53;;;;;;;7.20;6.80;;;18.70;87.20;;;;;;5069332;28;20203;-52
2022/07/05 00:12:21;;;;;;;6.67;6.27;;;18.70;90.10;;;;;;5061535;28;20475;-54
2022/07/05 00:14:49;;;;;;;6.80;6.40;;;18.70;91.90;;;;;;5070542;28;20469;-51
2022/07/05 00:17:15;;;;;;;7.50;7.00;;;18.60;91.20;;;;;;5068219;28;20428;-56
2022/07/05 00:19:42;;;;;;;7.27;6.87;;;18.60;91.20;;;;;;5068307;28;20941;-53
2022/07/05 00:22:07;;;;;;;7.43;7.03;;;18.60;91.20;;;;;;5068349;28;20807;-51
2022/07/05 00:24:33;;;;;;;7.47;7.00;;;18.50;90.80;;;;;;5068847;28;20428;-53
2022/07/05 00:26:59;;;;;;;8.10;7.60;;;18.60;92.40;;;;;;5068691;28;20562;-55
2022/07/05 00:29:25;;;;;;;7.67;7.17;;;18.60;92.20;;;;;;5068993;28;20288;-52
2022/07/05 00:31:50;;;;;;;7.23;6.63;;;18.50;92.10;;;;;;5068747;28;20255;-54
2022/07/05 00:34:16;;;;;;;7.97;7.40;;;18.60;93.00;;;;;;5069023;28;21259;-55
2022/07/05 00:36:42;;;;;;;6.93;6.43;;;18.50;94.30;;;;;;5068434;28;20186;-53
2022/07/05 00:39:08;;;;;;;7.10;6.70;;;18.50;95.50;;;;;;5068996;28;20190;-54
2022/07/05 00:41:34;;;;;;;7.30;6.87;;;18.50;95.80;;;;;;5067761;28;21270;-54
2022/07/05 00:44:11;;;;;;;6.77;6.37;;;18.50;95.50;;;;;;5069142;28;20410;-52
2022/07/05 00:46:38;;;;;;;7.43;6.93;;;18.50;95.50;;;;;;5068098;28;20440;-53
2022/07/05 00:49:05;;;;;;;7.17;6.77;;;18.50;95.90;;;;;;5069167;28;20888;-49
2022/07/05 00:51:34;;;;;;;7.37;6.97;;;18.40;97.50;;;;;;5068125;28;20573;-52
2022/07/05 00:54:00;;;;;;;7.37;6.87;;;18.40;99.10;;;;;;5068748;28;20523;-52
2022/07/05 00:56:27;;;;;;;6.73;6.40;;;18.40;99.40;;;;;;5068060;28;20432;-51
2022/07/05 00:58:53;;;;;;;6.97;6.57;;;18.30;99.80;;;;;;5068405;28;20505;-54
2022/07/05 01:01:19;;;;;;;7.80;7.30;;;18.30;99.90;;;;;;5067582;28;20534;-52
2022/07/05 01:03:46;;;;;;;7.47;6.80;;;18.20;99.90;;;;;;5068884;28;20428;-51
2022/07/05 01:06:13;;;;;;;7.23;6.73;;;18.20;99.90;;;;;;5070460;28;20811;-51
2022/07/05 01:08:42;;;;;;;6.97;6.47;;;18.20;99.90;;;;;;5058926;28;20727;-51
2022/07/05 01:11:11;;;;;;;6.80;6.40;;;18.20;99.90;;;;;;5072352;28;20612;-51
2022/07/05 01:13:37;;;;;;;7.03;6.63;;;18.20;99.90;;;;;;5059069;28;20434;-54
2022/07/05 01:16:04;;;;;;;7.50;7.10;;;18.20;99.90;;;;;;5072452;28;21013;-55
2022/07/05 01:18:34;;;;;;;7.10;6.70;;;18.20;99.90;;;;;;5071550;28;20435;-55
2022/07/05 01:21:01;;;;;;;7.63;7.13;;;18.20;99.90;;;;;;5071315;28;20980;-54
2022/07/05 01:23:29;;;;;;;7.23;6.83;;;18.10;99.90;;;;;;5071419;28;20522;-52
2022/07/05 01:25:56;;;;;;;7.47;6.87;;;18.10;99.90;;;;;;5071953;28;20419;-54
2022/07/05 01:28:22;;;;;;;7.73;7.13;;;18.10;99.90;;;;;;5071692;28;20443;-50
2022/07/05 01:30:48;;;;;;;7.60;7.20;;;18.00;99.90;;;;;;5072195;28;20467;-50
2022/07/05 01:33:13;;;;;;;7.50;6.90;;;18.00;99.90;;;;;;5071443;28;20556;-52
2022/07/05 01:35:39;;;;;;;8.00;7.30;;;17.90;99.90;;;;;;5071895;28;20201;-56
2022/07/05 01:38:05;;;;;;;7.80;7.30;;;17.90;99.90;;;;;;5070869;28;20196;-53
2022/07/05 01:40:31;;;;;;;8.30;7.60;;;17.90;99.90;;;;;;5071767;28;20516;-52
2022/07/05 01:42:57;;;;;;;8.17;7.67;;;17.80;99.90;;;;;;5070601;28;20196;-51
2022/07/05 01:45:41;;;;;;;8.63;8.13;;;17.80;99.90;;;;;;5071866;28;20193;-54
2022/07/05 01:48:14;;;;;;;7.70;7.17;;;17.80;99.90;;;;;;5070074;28;20239;-50
2022/07/05 01:50:47;;;;;;;7.50;7.10;;;17.80;99.90;;;;;;5050426;28;20483;-53
2022/07/05 01:53:22;;;;;;;8.20;7.70;;;17.70;99.90;;;;;;5060612;28;20431;-51
2022/07/05 01:55:48;;;;;;;7.90;7.50;;;17.70;99.90;;;;;;5071346;28;20423;-52
2022/07/05 01:58:14;;;;;;;8.10;7.70;;;17.70;99.90;;;;;;5070257;28;20495;-50
2022/07/05 02:00:45;;;;;;;8.20;7.60;;;17.60;99.90;;;;;;5071636;28;20495;-53
2022/07/05 02:03:11;;;;;;;8.60;8.10;;;17.60;99.90;;;;;;5044659;28;20190;-54
2022/07/05 02:05:37;;;;;;;7.70;7.30;;;17.60;99.90;;;;;;5071348;28;20423;-53
2022/07/05 02:08:03;;;;;;;7.83;7.33;;;17.50;99.90;;;;;;5071174;28;20442;-54
2022/07/05 02:10:28;;;;;;;8.03;7.57;;;17.50;99.90;;;;;;5071302;28;20219;-55
2022/07/05 02:12:54;;;;;;;8.50;8.00;;;17.50;99.90;;;;;;5070045;28;20192;-54
2022/07/05 02:15:19;;;;;;;8.00;7.60;;;17.40;99.90;;;;;;5071559;28;20353;-50
2022/07/05 02:17:45;;;;;;;7.90;7.40;;;17.40;99.90;;;;;;5071322;28;20637;-54
2022/07/05 02:20:11;;;;;;;7.90;7.50;;;17.30;99.90;;;;;;5069883;28;20586;-52
2022/07/05 02:22:37;;;;;;;7.40;7.00;;;17.30;99.90;;;;;;5071257;28;20190;-54
2022/07/05 02:25:03;;;;;;;7.70;7.10;;;17.20;99.90;;;;;;5070397;28;20438;-51
2022/07/05 02:27:28;;;;;;;7.50;7.10;;;17.20;99.90;;;;;;5071077;28;20205;-52
2022/07/05 02:29:54;;;;;;;7.33;6.93;;;17.20;99.90;;;;;;5070488;28;20442;-52
2022/07/05 02:32:19;;;;;;;8.20;7.80;;;17.10;99.90;;;;;;5069805;28;20658;-55
2022/07/05 02:34:45;;;;;;;8.33;7.83;;;17.10;99.90;;;;;;5070155;28;20192;-51
2022/07/05 02:37:11;;;;;;;7.40;7.00;;;17.00;99.90;;;;;;5071297;28;20196;-52
2022/07/05 02:39:36;;;;;;;8.07;7.67;;;17.00;99.90;;;;;;5052161;28;20211;-51
2022/07/05 02:42:02;;;;;;;7.50;7.10;;;16.90;99.90;;;;;;5070205;28;20220;-55
2022/07/05 02:44:28;;;;;;;7.70;7.30;;;16.90;99.90;;;;;;5069045;28;20707;-53
2022/07/05 02:46:53;;;;;;;8.17;7.50;;;16.80;99.90;;;;;;5070547;28;20431;-49
2022/07/05 02:49:19;;;;;;;7.87;7.37;;;16.80;99.90;;;;;;5065011;28;20665;-53
2022/07/05 02:51:44;;;;;;;8.97;8.37;;;16.70;99.90;;;;;;5070556;28;20208;-55
2022/07/05 02:54:10;;;;;;;8.03;7.53;;;16.70;99.90;;;;;;5069215;28;20193;-52
2022/07/05 02:56:36;;;;;;;8.03;7.53;;;16.70;99.90;;;;;;5070414;28;20181;-55
2022/07/05 02:59:01;;;;;;;8.10;7.60;;;16.70;99.90;;;;;;5069453;28;20320;-53
2022/07/05 03:01:27;;;;;;;8.27;7.77;;;16.60;99.90;;;;;;5070376;28;20196;-52
2022/07/05 03:03:53;;;;;;;7.80;7.30;;;16.60;99.90;;;;;;5068930;28;20164;-55
2022/07/05 03:06:19;;;;;;;7.40;7.00;;;16.50;99.90;;;;;;5043815;28;20427;-51
2022/07/05 03:08:44;;;;;;;8.37;7.77;;;16.50;99.90;;;;;;5050470;28;20719;-50
2022/07/05 03:11:10;;;;;;;9.00;8.50;;;16.50;99.90;;;;;;5067939;28;20666;-50
2022/07/05 03:13:35;;;;;;;8.23;7.53;;;16.50;99.90;;;;;;5069394;28;20188;-54
2022/07/05 03:16:01;;;;;;;8.30;7.80;;;16.50;99.90;;;;;;5069645;28;20180;-51
2022/07/05 03:18:27;;;;;;;8.23;7.73;;;16.50;99.90;;;;;;5070193;28;20204;-52
2022/07/05 03:20:52;;;;;;;8.63;8.13;;;16.50;99.90;;;;;;5069140;28;20195;-53
2022/07/05 03:23:18;;;;;;;8.67;7.93;;;16.50;99.90;;;;;;5069570;28;20260;-53
2022/07/05 03:25:43;;;;;;;8.57;8.00;;;16.50;99.90;;;;;;5069342;28;20180;-53
2022/07/05 03:28:09;;;;;;;8.10;7.60;;;16.50;99.90;;;;;;5069955;28;20180;-54
2022/07/05 03:30:35;;;;;;;7.90;7.40;;;16.40;99.90;;;;;;5069247;28;20194;-55
2022/07/05 03:33:00;;;;;;;8.47;7.87;;;16.40;99.90;;;;;;5062086;28;20556;-54
2022/07/05 03:35:27;;;;;;;8.00;7.40;;;16.50;99.90;;;;;;5069522;28;20245;-51
2022/07/05 03:37:52;;;;;;;7.73;7.23;;;16.50;99.90;;;;;;5069905;28;20204;-52
2022/07/05 03:40:18;;;;;;;7.73;7.13;;;16.50;99.90;;;;;;5068883;28;20436;-55
2022/07/05 03:42:43;;;;;;;7.90;7.50;;;16.50;99.90;;;;;;5069875;28;20550;-51
2022/07/05 03:45:09;;;;;;;7.43;6.90;;;16.50;99.90;;;;;;5064182;28;20611;-53
2022/07/05 03:47:35;;;;;;;7.07;6.67;;;16.50;99.90;;;;;;5049727;28;20192;-53
2022/07/05 03:50:01;;;;;;;7.20;6.73;;;16.50;99.90;;;;;;5055448;28;20441;-52
2022/07/05 03:52:26;;;;;;;7.20;6.80;;;16.60;99.90;;;;;;5065115;28;20218;-53
2022/07/05 03:54:53;;;;;;;8.20;7.60;;;16.60;99.90;;;;;;5068539;28;20181;-52
2022/07/05 03:57:18;;;;;;;8.23;7.73;;;16.70;99.90;;;;;;5069478;28;20238;-53
2022/07/05 03:59:44;;;;;;;7.40;6.90;;;16.70;99.90;;;;;;5068032;28;20466;-49
2022/07/05 04:02:10;;;;;;;8.10;7.60;;;16.70;99.90;;;;;;5069023;28;20262;-51
2022/07/05 04:04:35;;;;;;;7.63;7.10;;;16.70;99.90;;;;;;5068917;28;20453;-53
2022/07/05 04:07:01;;;;;;;8.20;7.70;;;16.80;99.90;;;;;;5061903;28;20538;-52
2022/07/05 04:09:27;;;;;;;8.30;7.80;;;16.80;99.90;;;;;;5069745;28;20334;-55
2022/07/05 04:11:52;;;;;;;10.80;8.00;;;16.80;99.90;;;;;;5068461;28;20457;-55
2022/07/05 04:14:18;;;;;;;9.30;8.60;;;16.80;99.90;;;;;;5068903;28;20174;-56
2022/07/05 04:16:44;;;;;;;9.70;9.00;;;16.80;99.90;;;;;;5068412;28;20181;-52
2022/07/05 04:19:09;;;;;;;9.23;8.63;;;16.80;99.90;;;;;;5068756;28;20651;-53
2022/07/05 04:21:35;;;;;;;9.60;8.90;;;16.90;99.90;;;;;;5054000;28;20519;-53
2022/07/05 04:24:00;;;;;;;9.30;8.57;;;16.90;99.90;;;;;;5048457;28;20218;-52
2022/07/05 04:26:26;;;;;;;9.50;8.80;;;16.90;99.90;;;;;;5042901;28;20242;-53
2022/07/05 04:28:52;;;;;;;9.93;9.10;;;16.90;99.90;;;;;;5069233;28;20184;-55
2022/07/05 04:31:17;;;;;;;8.70;8.00;;;17.00;99.90;;;;;;5064426;28;20463;-53
2022/07/05 04:33:43;;;;;;;10.90;9.90;;;17.00;99.90;;;;;;5065398;28;20173;-51
2022/07/05 04:36:09;;;;;;;11.13;9.83;;;17.10;99.90;;;;;;5067806;28;20260;-53
2022/07/05 04:38:34;;;;;;;10.17;9.27;;;17.10;99.90;;;;;;5069315;28;20199;-52
2022/07/05 04:41:00;;;;;;;9.90;9.10;;;17.20;99.90;;;;;;5050524;28;20177;-54
2022/07/05 04:43:26;;;;;;;9.70;9.00;;;17.30;99.90;;;;;;5071215;28;20254;-52
2022/07/05 04:45:51;;;;;;;9.03;8.47;;;17.30;99.90;;;;;;5071620;28;20722;-53
2022/07/05 04:48:17;;;;;;;9.23;8.40;;;17.30;99.90;;;;;;5073311;28;20195;-52
2022/07/05 04:50:42;;;;;;;9.00;8.20;;;17.40;99.90;;;;;;5071984;28;20212;-55
2022/07/05 04:53:08;;;;;;;8.73;8.10;;;17.40;99.90;;;;;;5072771;28;20203;-56
2022/07/05 04:55:33;;;;;;;9.40;8.50;;;17.40;99.90;;;;;;5071216;28;20624;-54
2022/07/05 04:57:59;;;;;;;9.33;8.53;;;17.50;99.90;;;;;;5072812;28;20181;-54
2022/07/05 05:00:25;;;;;;;9.67;8.83;;;17.50;99.90;;;;;;5071119;28;20698;-55
2022/07/05 05:02:50;;;;;;;8.30;7.50;;;17.50;99.90;;;;;;5072488;28;20193;-51
2022/07/05 05:05:16;;;;;;;8.70;7.90;;;17.60;99.90;;;;;;5072884;28;20663;-53
2022/07/05 05:07:43;;;;;;;8.90;8.30;;;17.60;99.90;;;;;;5070793;28;21079;-54
2022/07/05 05:10:09;;;;;;;9.77;8.87;;;17.60;99.90;;;;;;5064634;28;20195;-50
2022/07/05 05:12:34;;;;;;;8.60;7.90;;;17.60;99.90;;;;;;5070246;28;20506;-52
2022/07/05 05:15:00;;;;;;;8.87;8.27;;;17.70;99.90;;;;;;5071251;28;20506;-53
2022/07/05 05:17:33;;;;;;;8.50;7.70;;;17.70;99.90;;;;;;5070571;28;20216;-54
2022/07/05 05:19:59;;;;;;;9.33;8.53;;;17.80;99.90;;;;;;5072596;28;21044;-55
2022/07/05 05:22:24;;;;;;;9.60;8.80;;;17.80;99.90;;;;;;5071587;28;20476;-56
2022/07/05 05:24:50;;;;;;;8.93;8.17;;;17.80;99.90;;;;;;5071663;28;20204;-56
2022/07/05 05:27:15;;;;;;;9.93;8.90;;;17.90;99.90;;;;;;5072255;28;20193;-57
2022/07/05 05:29:41;;;;;;;9.40;8.70;;;17.90;99.90;;;;;;5071615;28;20203;-55
2022/07/05 05:32:07;;;;;;;9.80;9.10;;;17.90;99.90;;;;;;5064945;28;20331;-56
2022/07/05 05:34:33;;;;;;;10.10;9.30;;;18.00;99.90;;;;;;5069986;28;20194;-50
2022/07/05 05:36:58;;;;;;;9.50;8.90;;;17.90;99.90;;;;;;5071094;28;20412;-56
2022/07/05 05:39:24;;;;;;;9.53;8.70;;;17.90;99.90;;;;;;5069270;28;20205;-55
2022/07/05 05:41:49;;;;;;;9.30;8.50;;;18.00;99.90;;;;;;5070803;28;20190;-51
2022/07/05 05:44:15;;;;;;;9.07;8.40;;;18.00;99.90;;;;;;5068530;28;20735;-55
2022/07/05 05:46:40;;;;;;;9.47;8.77;;;18.00;99.90;;;;;;5070183;28;20531;-55
2022/07/05 05:49:06;;;;;;;9.50;8.80;;;18.10;99.90;;;;;;5070419;28;20198;-53
2022/07/05 05:51:32;;;;;;;9.33;8.57;;;18.20;99.90;;;;;;5070231;28;20211;-52
2022/07/05 05:53:57;;;;;;;8.50;7.80;;;18.10;99.90;;;;;;5052002;28;20181;-56
2022/07/05 05:56:23;;;;;;;9.00;8.20;;;18.30;99.90;;;;;;5070301;28;20185;-54
2022/07/05 05:58:49;;;;;;;8.93;8.40;;;18.30;99.90;;;;;;5070129;28;20228;-51
2022/07/05 06:01:14;;;;;;;9.20;8.53;;;18.40;99.90;;;;;;5069829;28;20181;-54
2022/07/05 06:03:40;;;;;;;8.93;7.93;;;18.40;99.90;;;;;;5070134;28;20196;-55
2022/07/05 06:06:06;;;;;;;8.70;8.10;;;18.50;99.90;;;;;;5068332;28;20229;-55
2022/07/05 06:08:32;;;;;;;9.10;8.30;;;18.60;99.90;;;;;;5071014;28;20910;-54
2022/07/05 06:10:58;;;;;;;8.30;7.80;;;18.70;99.20;;;;;;5058354;28;20209;-55
2022/07/05 06:13:23;;;;;;;9.07;8.40;;;18.80;99.10;;;;;;5070501;28;20200;-54
2022/07/05 06:15:49;;;;;;;9.17;8.53;;;18.90;99.30;;;;;;5071377;28;20180;-50
2022/07/05 06:18:14;;;;;;;9.00;8.30;;;19.00;98.70;;;;;;5070329;28;20584;-52
2022/07/05 06:20:40;;;;;;;8.60;7.93;;;19.00;98.20;;;;;;5069737;28;20653;-56
2022/07/05 06:23:06;;;;;;;9.40;8.60;;;19.20;98.10;;;;;;5070653;28;20212;-49
2022/07/05 06:25:33;;;;;;;8.40;7.80;;;19.20;96.30;;;;;;5069583;28;20261;-54
2022/07/05 06:28:01;;;;;;;7.40;6.90;;;19.40;95.60;;;;;;5069370;28;20431;-54
2022/07/05 06:30:28;;;;;;;8.90;8.20;;;19.50;95.20;;;;;;5069164;28;20475;-53
2022/07/05 06:32:55;;;;;;;9.00;8.10;;;19.70;94.40;;;;;;5068522;28;20424;-54
2022/07/05 06:35:21;;;;;;;8.47;7.70;;;19.70;93.60;;;;;;5071027;28;20430;-50
2022/07/05 06:37:52;;;;;;;8.23;7.60;;;19.80;93.40;;;;;;5070412;28;21154;-53
2022/07/05 06:40:28;;;;;;;8.20;7.70;;;19.80;92.90;;;;;;5070905;28;20964;-54
2022/07/05 06:42:57;;;;;;;7.90;7.40;;;19.90;92.80;;;;;;5069337;28;20476;-53
2022/07/05 06:45:23;;;;;;;7.40;6.90;;;20.00;91.90;;;;;;5071028;28;21108;-55
2022/07/05 06:48:00;;;;;;;7.43;6.93;;;20.20;91.50;;;;;;5070366;28;20486;-52
2022/07/05 06:50:28;;;;;;;8.13;6.40;;;20.30;91.10;;;;;;5070798;28;20462;-50
2022/07/05 06:52:53;;;;;;;7.23;6.83;;;20.30;90.90;;;;;;5065799;28;20448;-54
2022/07/05 06:55:20;;;;;;;7.10;6.60;;;20.40;91.20;;;;;;5069974;28;21686;-52
2022/07/05 06:57:45;;;;;;;7.00;6.40;;;20.40;91.00;;;;;;5069523;28;20189;-52
2022/07/05 07:00:12;;;;;;;8.70;7.30;;;20.60;89.30;;;;;;5070280;28;20597;-53
2022/07/05 07:02:37;;;;;;;6.60;6.20;;;20.70;88.40;;;;;;5069083;28;20187;-49
2022/07/05 07:05:03;;;;;;;6.87;6.33;;;20.80;87.70;;;;;;5069628;28;20416;-53
2022/07/05 07:10:17;;;;;;;6.90;6.50;;;21.00;84.90;;;;;;5063644;28;20466;-54
2022/07/05 07:12:42;;;;;;;8.13;6.57;;;21.10;84.30;;;;;;5069089;28;21001;-55
2022/07/05 07:15:08;;;;;;;7.10;6.50;;;21.30;83.10;;;;;;5070391;28;20215;-54
2022/07/05 07:17:34;;;;;;;6.90;6.50;;;21.40;83.30;;;;;;5069628;28;20208;-51
2022/07/05 07:20:00;;;;;;;5.90;5.50;;;21.40;81.10;;;;;;5069755;28;20451;-55
2022/07/05 07:22:25;;;;;;;6.93;6.10;;;21.50;81.70;;;;;;5068414;28;20194;-52
2022/07/05 07:24:51;;;;;;;6.63;6.23;;;21.60;77.90;;;;;;5070071;28;20186;-52
2022/07/05 07:27:16;;;;;;;6.97;6.37;;;21.70;78.70;;;;;;5069340;28;20267;-55
2022/07/05 07:29:42;;;;;;;7.13;6.73;;;21.80;78.00;;;;;;5070183;28;20180;-54
2022/07/05 07:32:09;;;;;;;7.20;6.70;;;22.00;76.20;;;;;;5061503;28;20206;-55
2022/07/05 07:34:36;;;;;;;6.53;6.13;;;22.10;75.00;;;;;;5069842;28;20406;-55
2022/07/05 07:37:02;;;;;;;7.10;6.60;;;22.20;74.80;;;;;;5069194;28;20441;-51
2022/07/05 07:39:28;;;;;;;9.40;6.57;;;22.40;74.60;;;;;;5069922;28;20415;-53
2022/07/05 07:41:54;;;;;;;6.60;6.20;;;22.40;74.00;;;;;;5069666;28;20435;-54
2022/07/05 07:44:20;;;;;;;7.00;6.60;;;22.50;71.70;;;;;;5068832;28;20509;-54
2022/07/05 07:46:46;;;;;;;9.90;5.83;;;22.70;71.10;;;;;;5069892;28;20242;-51
2022/07/05 07:49:12;;;;;;;7.60;7.03;;;22.80;69.60;;;;;;5068722;28;20437;-54
2022/07/05 07:51:38;;;;;;;7.03;6.40;;;22.90;68.60;;;;;;5069621;28;20459;-54
2022/07/05 07:54:04;;;;;;;6.50;5.90;;;23.00;69.30;;;;;;5069012;28;20455;-54
2022/07/05 07:56:29;;;;;;;6.50;6.00;;;23.10;67.70;;;;;;5069681;28;20416;-56
2022/07/05 07:58:55;;;;;;;6.10;5.60;;;23.20;66.40;;;;;;5053493;28;20285;-57
2022/07/05 08:01:22;;;;;;;6.30;6.00;;;23.40;64.90;;;;;;5059558;28;20218;-54
2022/07/05 08:03:48;;;;;;;6.20;5.80;;;23.50;63.70;;;;;;5069580;28;20647;-53
2022/07/05 08:06:14;;;;;;;6.30;5.80;;;23.60;63.10;;;;;;5068492;28;20464;-52
2022/07/05 08:08:41;;;;;;;5.13;4.83;;;23.80;62.00;;;;;;5069825;28;20162;-53
2022/07/05 08:11:09;;;;;;;5.20;4.90;;;23.90;58.00;;;;;;5068788;28;20295;-55
2022/07/05 08:13:35;;;;;;;4.50;4.30;;;24.10;53.80;;;;;;5069501;28;20426;-55
2022/07/05 08:16:02;;;;;;;4.87;4.67;;;24.10;53.40;;;;;;5068638;28;20431;-55
2022/07/05 08:24:00;;;;;;;5.40;5.10;;;24.50;49.60;;;;;;5068994;28;20447;-52
2022/07/05 08:26:27;;;;;;;5.17;4.87;;;24.70;48.90;;;;;;5066681;28;20424;-57
2022/07/05 08:28:53;;;;;;;5.40;5.10;;;24.70;48.20;;;;;;5069123;28;20492;-53
2022/07/05 08:31:20;;;;;;;5.60;5.27;;;24.80;47.80;;;;;;5067590;28;20457;-54
2022/07/05 08:33:45;;;;;;;4.97;4.50;;;24.90;48.10;;;;;;5069387;28;20162;-52
2022/07/05 08:36:11;;;;;;;6.00;5.60;;;25.00;47.70;;;;;;5068448;28;20816;-51
2022/07/05 08:38:36;;;;;;;5.47;5.17;;;25.10;46.70;;;;;;5069266;28;20673;-54
2022/07/05 08:41:02;;;;;;;9.43;6.03;;;25.20;46.50;;;;;;5069419;28;20167;-51
2022/07/05 08:43:29;;;;;;;5.37;4.97;;;25.30;45.60;;;;;;5068372;28;20186;-54
2022/07/05 08:45:56;;;;;;;4.67;4.30;;;25.40;45.60;;;;;;5067986;28;20470;-55
2022/07/05 08:48:26;;;;;;;6.00;5.40;;;25.50;44.90;;;;;;5069003;28;20440;-55
2022/07/05 08:50:56;;;;;;;5.03;4.77;;;25.60;43.70;;;;;;5068178;28;20462;-52
2022/07/05 08:53:21;;;;;;;4.70;4.50;;;25.80;44.50;;;;;;5069078;28;20419;-53
2022/07/05 08:55:47;;;;;;;7.03;5.07;;;25.90;43.10;;;;;;5060890;28;20425;-52
2022/07/05 08:58:13;;;;;;;5.30;4.97;;;26.10;43.00;;;;;;5068656;28;20195;-52
2022/07/05 09:00:41;;;;;;;4.90;4.60;;;26.30;42.50;;;;;;5087005;28;20977;-52
2022/07/05 09:03:07;;;;;;;5.53;5.00;;;26.50;41.60;;;;;;5051043;28;20176;-55
2022/07/05 09:05:42;;;;;;;5.20;4.40;;;26.70;41.10;;;;;;5055681;28;20762;-52
2022/07/05 09:08:11;;;;;;;6.33;5.73;;;26.80;38.60;;;;;;5066347;28;20209;-51
2022/07/05 09:10:38;;;;;;;5.27;4.87;;;27.20;36.90;;;;;;5050678;28;20910;-56
2022/07/05 09:13:04;;;;;;;5.30;4.90;;;27.40;37.00;;;;;;5068105;28;20427;-50
2022/07/05 09:15:30;;;;;;;5.30;5.00;;;27.50;36.20;;;;;;5068763;28;20446;-52
2022/07/05 09:17:55;;;;;;;4.70;4.50;;;27.60;35.60;;;;;;5068005;28;20169;-57
2022/07/05 09:20:21;;;;;;;4.50;4.27;;;27.70;35.40;;;;;;5068553;28;20228;-56
2022/07/05 09:22:54;;;;;;;4.53;4.33;;;28.10;34.40;;;;;;5067668;28;20186;-54
2022/07/05 09:25:22;;;;;;;4.60;4.40;;;28.40;35.30;;;;;;5068609;28;20699;-52
2022/07/05 09:27:51;;;;;;;5.13;4.73;;;28.80;32.50;;;;;;5067794;28;20435;-52
2022/07/05 09:30:31;;;;;;;5.60;5.30;;;29.50;31.00;;;;;;5071615;28;20418;-53
2022/07/05 09:33:06;;;;;;;5.33;5.03;;;30.30;29.20;;;;;;5066451;28;20479;-54
2022/07/05 09:35:37;;;;;;;6.20;5.67;;;30.60;28.90;;;;;;5072066;28;20854;-56
2022/07/05 09:38:04;;;;;;;5.50;5.20;;;31.00;27.80;;;;;;5071854;28;20427;-52
2022/07/05 09:40:44;;;;;;;5.47;5.07;;;31.40;26.60;;;;;;5072112;28;20435;-53
2022/07/05 09:43:11;;;;;;;5.60;5.30;;;31.90;26.30;;;;;;5070773;28;20435;-53
2022/07/05 09:45:37;;;;;;;4.80;4.60;;;32.70;26.00;;;;;;5072339;28;20408;-56
2022/07/05 09:48:06;;;;;;;5.70;5.20;;;33.00;24.70;;;;;;5071232;28;20464;-52
2022/07/05 09:50:36;;;;;;;5.00;4.70;;;33.00;23.70;;;;;;5071886;28;20166;-54
2022/07/05 09:53:01;;;;;;;4.80;4.50;;;32.90;24.50;;;;;;5071589;28;20428;-53
2022/07/05 09:55:27;;;;;;;6.23;4.60;;;33.30;23.50;;;;;;5063733;28;20431;-57
2022/07/05 09:57:54;;;;;;;4.63;4.43;;;33.70;23.00;;;;;;5067661;28;20185;-53
2022/07/05 10:00:21;;;;;;;5.13;4.93;;;33.80;22.40;;;;;;5070891;28;20317;-56
2022/07/05 10:02:49;;;;;;;5.10;4.80;;;33.90;22.20;;;;;;5071711;28;20392;-55
2022/07/05 10:05:17;;;;;;;4.20;4.00;;;34.20;21.70;;;;;;5053437;28;20448;-54
2022/07/05 10:07:45;;;;;;;4.80;4.60;;;34.30;21.00;;;;;;5051481;28;20892;-56
2022/07/05 10:10:13;;;;;;;4.40;4.20;;;34.10;21.20;;;;;;5060404;28;20705;-55
2022/07/05 10:12:40;;;;;;;5.10;4.90;;;34.10;21.10;;;;;;5071386;28;20823;-54
2022/07/05 10:15:08;;;;;;;4.93;4.50;;;34.60;20.20;;;;;;5070144;28;20428;-55
2022/07/05 10:17:36;;;;;;;5.30;5.00;;;34.60;20.10;;;;;;5070782;28;20428;-55
2022/07/05 10:20:09;;;;;;;5.40;5.10;;;35.20;19.80;;;;;;5071072;28;20952;-53
2022/07/05 10:22:35;;;;;;;5.40;5.10;;;35.50;18.40;;;;;;5070471;28;20432;-55
2022/07/05 10:25:01;;;;;;;5.30;5.00;;;34.90;19.70;;;;;;5070780;28;20443;-55
2022/07/05 10:27:28;;;;;;;5.10;4.80;;;34.50;19.90;;;;;;5071816;28;20491;-56
2022/07/05 10:29:56;;;;;;;5.60;5.20;;;34.60;19.50;;;;;;5071058;28;20423;-56
2022/07/05 10:32:23;;;;;;;4.70;4.40;;;34.20;19.30;;;;;;5063519;28;20460;-52
2022/07/05 10:34:51;;;;;;;5.03;4.73;;;33.90;19.40;;;;;;5070454;28;21379;-52
2022/07/05 10:37:17;;;;;;;5.40;5.10;;;33.90;20.00;;;;;;5052880;28;20914;-56
2022/07/05 10:39:42;;;;;;;5.27;5.07;;;34.10;19.60;;;;;;5069404;28;20429;-57
2022/07/05 10:42:09;;;;;;;4.93;4.60;;;34.70;20.10;;;;;;5070594;28;21037;-55
2022/07/05 10:44:35;;;;;;;4.73;4.47;;;34.40;18.40;;;;;;5069532;28;20197;-55
2022/07/05 10:47:10;;;;;;;5.03;4.83;;;34.00;19.10;;;;;;5070870;28;20431;-54
2022/07/05 10:49:37;;;;;;;4.47;4.27;;;33.60;19.00;;;;;;5069994;28;20256;-56
2022/07/05 10:52:03;;;;;;;4.83;4.43;;;33.60;18.60;;;;;;5070732;28;20459;-55
2022/07/05 10:54:29;;;;;;;4.30;4.10;;;33.60;19.40;;;;;;5063915;28;20609;-56
2022/07/05 10:57:21;;;;;;;4.63;4.23;;;33.80;18.60;;;;;;5063135;28;20558;-52
2022/07/05 11:00:07;;;;;;;4.83;4.50;;;33.80;19.30;;;;;;5069240;28;20229;-50
2022/07/05 11:02:33;;;;;;;5.03;4.40;;;34.00;19.20;;;;;;5070457;28;20465;-52
2022/07/05 11:04:59;;;;;;;4.53;4.23;;;33.90;19.90;;;;;;5062773;28;20436;-56
2022/07/05 11:07:59;;;;;;;4.90;4.50;;;34.50;18.80;;;;;;5070202;28;20185;-55
2022/07/05 11:10:25;;;;;;;3.93;3.83;;;35.30;19.00;;;;;;5068906;28;20862;-55
2022/07/05 11:12:51;;;;;;;4.90;4.53;;;36.00;18.70;;;;;;5070120;28;20596;-53
2022/07/05 11:15:17;;;;;;;5.23;4.73;;;36.90;16.80;;;;;;5068594;28;20541;-55
2022/07/05 11:17:43;;;;;;;4.47;4.27;;;37.10;16.40;;;;;;5070048;28;20180;-55
2022/07/05 11:20:10;;;;;;;4.93;4.50;;;37.60;15.40;;;;;;5069707;28;20265;-55
2022/07/05 11:22:39;;;;;;;5.90;4.53;;;37.40;14.80;;;;;;5069864;28;20568;-56
2022/07/05 11:25:05;;;;;;;4.70;4.50;;;37.30;15.70;;;;;;5069457;28;20435;-56
2022/07/05 11:27:33;;;;;;;4.63;4.43;;;36.60;15.90;;;;;;5069376;28;20456;-54
2022/07/05 11:29:59;;;;;;;4.60;4.30;;;35.90;16.40;;;;;;5069965;28;20427;-54
2022/07/05 11:32:30;;;;;;;4.50;4.30;;;35.70;17.70;;;;;;5068583;28;20849;-51
2022/07/05 11:35:14;;;;;;;4.57;4.37;;;36.00;17.20;;;;;;5056904;28;20178;-56
2022/07/05 11:37:58;;;;;;;4.40;4.20;;;36.70;17.00;;;;;;5068787;28;20462;-57
2022/07/05 11:40:29;;;;;;;4.47;4.10;;;36.90;16.00;;;;;;5069900;28;20420;-56
2022/07/05 11:42:54;;;;;;;4.67;4.47;;;36.30;16.00;;;;;;5068463;28;20753;-57
2022/07/05 11:45:20;;;;;;;3.87;3.77;;;35.40;18.00;;;;;;5069761;28;20462;-53
2022/07/05 11:47:47;;;;;;;4.47;4.27;;;35.70;16.20;;;;;;5056139;28;20236;-52
2022/07/05 11:50:13;;;;;;;4.23;4.13;;;35.70;15.70;;;;;;5069745;28;20181;-55
2022/07/05 11:52:39;;;;;;;4.00;3.80;;;35.80;15.90;;;;;;5068804;28;20952;-53
2022/07/05 11:55:09;;;;;;;4.27;3.97;;;35.20;15.90;;;;;;5069173;28;20432;-53
2022/07/05 11:57:35;;;;;;;4.67;4.47;;;34.40;17.40;;;;;;5068463;28;20427;-49
2022/07/05 12:00:02;;;;;;;4.70;4.50;;;34.40;17.70;;;;;;5069265;28;20928;-52
2022/07/05 12:02:28;;;;;;;4.73;4.53;;;34.50;18.00;;;;;;5068255;28;20436;-56
2022/07/05 12:04:55;;;;;;;4.80;4.57;;;34.40;18.00;;;;;;5069449;28;20717;-57
2022/07/05 12:07:33;;;;;;;4.77;4.43;;;35.10;17.60;;;;;;5061330;28;20185;-53
2022/07/05 12:12:44;;;;;;;4.83;4.63;;;36.10;16.70;;;;;;5067785;28;20491;-56
2022/07/05 12:15:15;;;;;;;4.43;4.13;;;35.90;16.20;;;;;;5050177;28;20420;-56
2022/07/05 12:17:43;;;;;;;4.67;4.37;;;35.90;16.40;;;;;;5066775;28;20432;-55
2022/07/05 12:20:11;;;;;;;4.63;4.40;;;36.60;16.30;;;;;;5057323;28;20418;-54
2022/07/05 12:22:42;;;;;;;4.57;4.37;;;37.60;15.40;;;;;;5066892;28;21270;-54
2022/07/05 12:25:17;;;;;;;4.10;3.90;;;38.10;14.70;;;;;;5056829;28;20447;-57
2022/07/05 12:27:44;;;;;;;4.77;4.43;;;37.20;14.80;;;;;;5067094;28;20434;-52
2022/07/05 12:30:11;;;;;;;4.70;4.50;;;36.20;15.10;;;;;;5068524;28;20422;-56
2022/07/05 12:32:57;;;;;;;4.80;4.60;;;35.20;16.20;;;;;;5061739;28;20579;-55
2022/07/05 12:35:28;;;;;;;5.20;5.00;;;34.50;16.90;;;;;;5067525;28;21181;-55
2022/07/05 12:37:54;;;;;;;5.43;4.77;;;34.00;17.30;;;;;;5067053;28;20439;-54
2022/07/05 12:40:22;;;;;;;4.73;4.43;;;33.50;18.20;;;;;;5049134;28;20424;-52
2022/07/05 12:43:04;;;;;;;4.73;4.43;;;33.60;18.40;;;;;;5065068;28;20188;-54
2022/07/05 12:45:30;;;;;;;4.90;4.70;;;34.50;17.80;;;;;;5067389;28;20511;-51
2022/07/05 12:47:58;;;;;;;4.80;4.50;;;35.30;16.60;;;;;;5065884;28;20907;-55
2022/07/05 12:50:28;;;;;;;5.03;4.73;;;35.30;16.70;;;;;;5067936;28;20209;-56
2022/07/05 12:52:54;;;;;;;4.87;4.67;;;35.00;16.70;;;;;;5067355;28;20463;-56
2022/07/05 12:58:04;;;;;;;4.90;4.70;;;33.50;18.40;;;;;;5067823;28;20434;-55
2022/07/05 13:00:30;;;;;;;5.30;4.80;;;33.20;18.50;;;;;;5067186;28;20460;-51